ユジノサハリンスク の空港の天気 - METARとTAF

ホムトヴォ空港(ユジノサハリンスク) ( UHSS / UUS ) - ロシア ユジノサハリンスク
飛行場実況気象(Metar)
観測時間01/21 03:00 +10 (01/20 17:00 UTC)
風向・風速北 5m/s 瞬間風速10m/s
視程10km以上
天気現象低い地吹雪
全天の4割程度の雲 雲底高度 1010m
気温-12℃
湿度92%
気圧1019hPa
METARUHSS 201700Z 36005G10MPS 9999 DRSN SCT033CB M12/M13 Q1019 R01/850341 NOSIG RMK MT OBSC QFE763/1017
過去の天気等 Google飛行場航空写真 Wunderground天気予報

過去48時間のMETAR

飛行場予報(TAF)
発表時間: 1/21 03:00 +10 (1/20 17:00 UTC)
予報対象時間: 21日4時 +10 ~ 22日10時 +10
風向・風速北 7m/s
視程10km以上
全天の8割程度の積乱雲 雲底高度 610m
全天の8割程度の雲 雲底高度 3,050m
21日4時 +10 ~ 21日7時 +10 に一時的に
風向・風速北 6m/s 瞬間風速 11m/s
視程900m
天気現象強いしゅう雪 高い地吹雪
全天の8割程度の雲 雲底高度 210m
全天の8割程度の積乱雲 雲底高度 580m
TAF UHSS 201700Z 2018/2124 35007MPS 9999 BKN020CB BKN100
TEMPO 2018/2021 01006G11MPS 0900 +SHSN BLSN BKN007 BKN019CB